Fredonia, Tennessee
Current Conditions -  °F | °C
As of 3:52 AM on Tuesday 21 Oct 2014 (Local Time) from KCKV Reporting Station
Haze Haze  
Wind Chill: 50°   Ceiling: Unl
Heat Index: 50°   Visibility: 5mi
Dew Point: 50°   Wind: 3mph
Humidity: 100%   Direction: 270°W
Pressure: 30.01"   Gusts: NA
Location:  36.4964°N, 87.234°W
Report Text: KCKV 210852Z AUTO 27003KT 5SM BR CLR 10/10 A3001 RMK AO2 SLP158 T01000100 58000
Loading
Personal Weather Stations






























Interactive Weather Map
Tropical Storm Tracking
New forecast layout! Learn more

10-Day Weather Forecast

Advertisements
Track Severe Weather on mobile